Moosonee, Canada
Current Conditions -  °F | °C
As of 4:00 PM on Wednesday 17 Dec 2014 (Local Time) from CYMO Reporting Station
Clear Clear  
Wind Chill:   Ceiling: Unl
Heat Index: 16°   Visibility: 9mi
Dew Point: 12°   Wind: 8mph
Humidity: 86%   Direction: 340°NNW
Pressure: 30.17"   Gusts: NA
Location:  51.27°N, 80.64°W
Report Text: CYMO 172100Z AUTO 34007KT 9SM CLR M09/M11 A3017 RMK SLP217
Loading
Personal Weather Stations






























Interactive Weather Map New forecast layout! Learn more

10-Day Weather Forecast

Advertisements
Track Severe Weather on mobile